Tuesday, January 23, 2018, 6:22 AM CST
Back to Local

KGUY, Guymon Municipal Airport

Location: Guymon, OK, United States Lat: 36.683
Local Time: 6:22 AM CST (12:22 GMT) Lon: -101.5
Time Zone: US/Central Elev: 3123 ft

Show me the last for .
Show Decoded

2018-01-23 05:53 METAR KGUY 231153Z AUTO 32007KT 10SM CLR M06/M13 A3019 RMK AO2 SLP236 T10611133
                 11017 21078 53003 =
2018-01-23 04:53 METAR KGUY 231053Z AUTO 28010KT 10SM CLR M06/M13 A3018 RMK AO2 SLP229 T10611128
                 =
2018-01-23 03:53 METAR KGUY 230953Z AUTO 30007KT 10SM CLR M06/M12 A3017 RMK AO2 SLP225 T10561122
                 =
2018-01-23 02:53 METAR KGUY 230853Z AUTO 23007KT 10SM CLR M07/M13 A3018 RMK AO2 SLP230 T10721133
                 53009 =
2018-01-23 01:53 METAR KGUY 230753Z AUTO 33008KT 10SM CLR M03/M12 A3015 RMK AO2 SLP215 T10281122
                 =
2018-01-23 00:53 METAR KGUY 230653Z AUTO 29010KT 10SM CLR M04/M12 A3016 RMK AO2 SLP219 T10441122
                 =
2018-01-22 23:53 METAR KGUY 230553Z AUTO 31007KT 10SM CLR M02/M12 A3015 RMK AO2 SLP215 T10171117
                 10044 21044 400891044 51008 =
2018-01-22 22:53 METAR KGUY 230453Z AUTO 28006KT 10SM CLR M02/M11 A3015 RMK AO2 SLP217 T10221111
                 =
2018-01-22 21:53 METAR KGUY 230353Z AUTO 29008KT 10SM CLR M02/M12 A3014 RMK AO2 SLP214 T10221117
                 =
2018-01-22 20:53 METAR KGUY 230253Z AUTO 29007KT 10SM CLR M01/M12 A3012 RMK AO2 SLP210 T10061117
                 51016 =
2018-01-22 19:53 METAR KGUY 230153Z AUTO 30008KT 10SM CLR 00/M12 A3012 RMK AO2 SLP211 T00001122 =
2018-01-22 18:53 METAR KGUY 230053Z AUTO 29006KT 10SM CLR 01/M12 A3010 RMK AO2 SLP203 T00111122 =
2018-01-22 17:53 METAR KGUY 222353Z AUTO 34011KT 10SM CLR 04/M13 A3007 RMK AO2 SLP188 T00441128
                 10089 20044 51023 =
2018-01-22 16:53 METAR KGUY 222253Z AUTO 33016G24KT 10SM CLR 08/M13 A3005 RMK AO2 PK WND
                 32027/2225 SLP176 T00781133 =
2018-01-22 15:53 METAR KGUY 222153Z AUTO 34018G26KT 10SM CLR 08/M12 A3002 RMK AO2 PK WND
                 32030/2139 SLP166 T00831122 =
2018-01-22 14:53 METAR KGUY 222053Z AUTO 32025G31KT 10SM CLR 08/M12 A3000 RMK AO2 PK WND
                 33034/2001 SLP158 T00831117 =
2018-01-22 13:53 METAR KGUY 221953Z AUTO 33024G34KT 10SM CLR 08/M10 A2997 RMK AO2 PK WND
                 33035/1929 SLP150 T00831100 =
2018-01-22 12:53 METAR KGUY 221853Z AUTO 33026G34KT 10SM 07/M09 A3001 RMK AO2 PK WND 31034/1843
                 SLP164 T00721094 $ =
2018-01-22 11:53 METAR KGUY 221753Z AUTO 32028G40KT 10SM CLR 06/M09 A3003 RMK AO2 PK WND
                 35040/1745 SLP171 T00611089 10061 21011 51022 =
2018-01-22 10:53 METAR KGUY 221653Z AUTO 32027G35KT 10SM CLR 04/M08 A3002 RMK AO2 PK WND
                 33037/1623 SLP171 T00441083 =
2018-01-22 09:53 METAR KGUY 221553Z AUTO 32024G33KT 10SM CLR 03/M08 A2998 RMK AO2 PK WND
                 32035/1513 SLP159 T00281078 =
2018-01-22 08:53 METAR KGUY 221453Z AUTO 32023G31KT 10SM CLR 01/M07 A2996 RMK AO2 PK WND
                 31031/1447 SLP154 T00111072 51022 =
2018-01-22 07:53 METAR KGUY 221353Z AUTO 31019G26KT 10SM CLR M01/M07 A2994 RMK AO2 PK WND
                 30027/1318 SLP146 T10111067 =
2018-01-22 06:53 METAR KGUY 221253Z AUTO 31017G25KT 10SM CLR M01/M06 A2992 RMK AO2 PK WND
                 32029/1237 SLP139 T10061061 =

Support USWX by starting your Amazon purchase here.